createdAt,value
2024-03-14T00:05:00.122Z,70.71
2024-03-14T00:10:03.467Z,70.66
2024-03-14T00:15:07.814Z,70.90
2024-03-14T00:20:13.515Z,71.01
2024-03-14T00:25:16.614Z,71.26
2024-03-14T00:30:20.840Z,71.53
2024-03-14T00:35:25.421Z,71.51
2024-03-14T00:40:30.204Z,71.43
2024-03-14T00:45:33.404Z,70.97
2024-03-14T00:50:38.267Z,70.95
2024-03-14T00:55:42.820Z,70.40
2024-03-14T01:00:46.025Z,70.57
2024-03-14T01:05:49.137Z,71.16
2024-03-14T01:10:52.170Z,70.89
2024-03-14T01:15:55.395Z,70.90
2024-03-14T01:20:58.657Z,71.15
2024-03-14T01:26:05.370Z,71.09
2024-03-14T01:31:08.393Z,70.86
2024-03-14T01:36:12.142Z,71.38
2024-03-14T01:41:22.637Z,71.26
2024-03-14T01:46:29.160Z,71.20
2024-03-14T01:51:32.204Z,71.51
2024-03-14T01:56:37.529Z,71.53
2024-03-14T02:01:42.093Z,71.18
2024-03-14T02:07:02.646Z,70.94
2024-03-14T02:12:06.671Z,71.42
2024-03-14T02:17:09.833Z,71.30
2024-03-14T02:22:22.163Z,71.07
2024-03-14T02:27:25.828Z,71.78
2024-03-14T02:32:29.521Z,71.96
2024-03-14T02:37:34.044Z,72.24
2024-03-14T02:42:37.563Z,72.22
2024-03-14T02:47:40.682Z,73.50
2024-03-14T02:52:43.714Z,73.31
2024-03-14T02:57:46.802Z,72.91
2024-03-14T03:02:50.128Z,72.91
2024-03-14T03:07:55.575Z,73.68
2024-03-14T03:12:58.402Z,73.19
2024-03-14T03:18:01.508Z,72.82
2024-03-14T03:23:08.098Z,73.19
2024-03-14T03:28:11.968Z,73.47
2024-03-14T03:33:18.814Z,72.74
2024-03-14T03:38:21.971Z,72.38
2024-03-14T03:43:27.632Z,72.02
2024-03-14T03:48:30.998Z,70.83
2024-03-14T03:53:34.392Z,70.13
2024-03-14T03:58:37.514Z,69.34
2024-03-14T04:03:43.521Z,69.08
2024-03-14T04:08:47.286Z,68.82
2024-03-14T04:13:51.896Z,68.01
2024-03-14T04:18:55.428Z,67.31
2024-03-14T04:23:58.616Z,67.62
2024-03-14T04:29:02.470Z,67.61
2024-03-14T04:34:06.458Z,67.74
2024-03-14T04:39:10.721Z,67.22
2024-03-14T04:44:15.864Z,66.69
2024-03-14T04:49:19.230Z,66.77
2024-03-14T04:54:25.830Z,66.81
2024-03-14T04:59:29.492Z,66.54
2024-03-14T05:04:32.770Z,65.85
2024-03-14T05:09:35.872Z,65.84
2024-03-14T05:14:39.077Z,65.44
2024-03-14T05:19:42.218Z,64.56
2024-03-14T05:24:45.566Z,64.55
2024-03-14T05:29:48.779Z,63.80
2024-03-14T05:34:51.964Z,64.37
2024-03-14T05:39:55.053Z,64.69
2024-03-14T05:44:59.517Z,64.32
2024-03-14T05:50:08.608Z,64.14
2024-03-14T05:55:12.406Z,64.08
2024-03-14T06:00:16.049Z,63.76
2024-03-14T06:05:19.453Z,63.30
2024-03-14T06:10:23.604Z,63.36
2024-03-14T06:15:26.643Z,63.53
2024-03-14T06:20:31.207Z,62.89
2024-03-14T06:25:34.286Z,62.68
2024-03-14T06:30:37.355Z,61.93
2024-03-14T06:35:40.927Z,62.97
2024-03-14T06:40:44.107Z,62.35
2024-03-14T06:45:47.644Z,62.13
2024-03-14T06:50:50.950Z,61.82
2024-03-14T06:55:54.139Z,60.92
2024-03-14T07:00:57.372Z,59.82
2024-03-14T07:06:00.557Z,58.84
2024-03-14T07:11:03.756Z,59.70
2024-03-14T07:16:11.169Z,59.39
2024-03-14T07:21:14.271Z,58.25
2024-03-14T07:26:33.475Z,57.16
2024-03-14T07:31:36.702Z,57.65
2024-03-14T07:36:43.098Z,58.07
2024-03-14T07:41:46.056Z,59.52
2024-03-14T07:46:49.940Z,58.65
2024-03-14T07:51:57.042Z,58.82
2024-03-14T07:57:00.065Z,58.90
2024-03-14T08:02:03.105Z,58.80
2024-03-14T08:07:11.887Z,57.29
2024-03-14T08:12:15.359Z,57.59
2024-03-14T08:17:21.830Z,57.24
2024-03-14T08:22:27.861Z,57.24
2024-03-14T08:27:30.953Z,58.39
2024-03-14T08:32:34.436Z,57.29
2024-03-14T08:37:37.515Z,56.36
2024-03-14T08:42:46.314Z,55.17
2024-03-14T08:47:53.371Z,54.26
2024-03-14T08:52:56.752Z,54.12
2024-03-14T08:58:04.179Z,54.77
2024-03-14T09:03:09.769Z,54.24
2024-03-14T09:08:13.199Z,54.71
2024-03-14T09:13:16.208Z,54.94
2024-03-14T09:18:20.912Z,54.05
2024-03-14T09:23:27.060Z,54.19
2024-03-14T09:28:30.616Z,53.30
2024-03-14T09:33:33.699Z,51.84
2024-03-14T09:38:37.938Z,49.79
2024-03-14T09:43:40.994Z,49.36
2024-03-14T09:48:44.367Z,49.04
2024-03-14T09:53:51.568Z,49.15
2024-03-14T09:58:58.172Z,49.18
2024-03-14T10:04:01.364Z,49.30
2024-03-14T10:09:17.677Z,49.47
2024-03-14T10:14:27.181Z,49.17
2024-03-14T10:19:32.224Z,48.07
2024-03-14T10:24:35.725Z,49.15
2024-03-14T10:29:38.686Z,49.72
2024-03-14T10:34:44.865Z,49.42
2024-03-14T10:39:55.756Z,49.87
2024-03-14T10:45:02.969Z,50.43
2024-03-14T10:50:18.237Z,49.82
2024-03-14T10:55:23.366Z,49.09
2024-03-14T11:00:26.731Z,48.80
2024-03-14T11:05:53.981Z,48.55
2024-03-14T11:11:00.186Z,48.61
2024-03-14T11:16:07.512Z,48.41
2024-03-14T11:21:13.684Z,47.80
2024-03-14T11:26:18.566Z,48.00
2024-03-14T11:31:21.993Z,48.68
2024-03-14T11:36:31.262Z,48.42
2024-03-14T11:41:37.773Z,48.01
2024-03-14T11:46:42.739Z,48.30
2024-03-14T11:51:51.184Z,48.34
2024-03-14T11:56:56.792Z,46.80
2024-03-14T12:02:03.828Z,44.78
2024-03-14T12:07:11.570Z,43.01
2024-03-14T12:12:14.956Z,41.44
2024-03-14T12:17:18.706Z,40.98
2024-03-14T12:22:23.166Z,42.27
2024-03-14T12:27:27.353Z,41.98
2024-03-14T12:32:31.499Z,41.55
2024-03-14T12:37:34.615Z,40.81
2024-03-14T12:42:38.149Z,41.49
2024-03-14T12:47:49.048Z,40.37
2024-03-14T12:53:13.631Z,39.78
2024-03-14T12:58:24.239Z,39.17
2024-03-14T13:03:27.160Z,39.73
2024-03-14T13:08:31.231Z,39.26
2024-03-14T13:13:34.939Z,39.18
2024-03-14T13:18:40.665Z,38.67
2024-03-14T13:23:43.789Z,40.30
2024-03-14T13:28:46.667Z,40.89
2024-03-14T13:33:49.815Z,41.50
2024-03-14T13:38:52.758Z,41.71
2024-03-14T13:43:56.103Z,42.09
2024-03-14T13:49:11.718Z,43.17
2024-03-14T13:54:19.237Z,42.92
2024-03-14T13:59:22.832Z,42.97
2024-03-14T14:04:27.968Z,42.93
2024-03-14T14:09:34.412Z,43.28
2024-03-14T14:14:37.574Z,43.63
2024-03-14T14:19:40.600Z,44.29
2024-03-14T14:24:43.893Z,45.17
2024-03-14T14:29:46.950Z,46.14
2024-03-14T14:34:50.291Z,47.49
2024-03-14T14:39:53.499Z,47.72
2024-03-14T14:44:57.465Z,48.42
2024-03-14T14:50:00.996Z,49.20
2024-03-14T14:55:15.189Z,50.37
2024-03-14T15:00:19.121Z,51.96
2024-03-14T15:05:22.226Z,52.68
2024-03-14T15:10:25.451Z,53.55
2024-03-14T15:15:28.970Z,54.77
2024-03-14T15:20:32.960Z,55.23
2024-03-14T15:25:37.117Z,56.05
2024-03-14T15:30:40.073Z,57.20
2024-03-14T15:35:44.628Z,57.63
2024-03-14T15:40:47.739Z,58.11
2024-03-14T15:45:50.814Z,58.81
2024-03-14T15:50:54.276Z,59.07
2024-03-14T15:55:57.698Z,59.72
2024-03-14T16:01:02.093Z,60.33
2024-03-14T16:06:05.897Z,60.58
2024-03-14T16:11:09.820Z,61.18
2024-03-14T16:16:15.037Z,61.42
2024-03-14T16:21:18.913Z,61.99
2024-03-14T16:26:25.087Z,62.50
2024-03-14T16:31:30.101Z,62.82
2024-03-14T16:36:35.178Z,63.26
2024-03-14T16:41:38.237Z,63.57
2024-03-14T16:46:41.449Z,64.13
2024-03-14T16:51:44.632Z,64.29
2024-03-14T16:56:48.292Z,64.35
2024-03-14T17:01:51.830Z,64.61
2024-03-14T17:06:55.038Z,64.95
2024-03-14T17:11:58.237Z,65.20
2024-03-14T17:17:08.241Z,65.65
2024-03-14T17:22:16.121Z,65.85
2024-03-14T17:27:19.317Z,66.36
2024-03-14T17:32:23.018Z,66.86
2024-03-14T17:37:26.222Z,67.01
2024-03-14T17:42:29.755Z,67.68
2024-03-14T17:47:35.294Z,68.42
2024-03-14T17:52:44.469Z,68.61
2024-03-14T17:57:51.171Z,69.26
2024-03-14T18:02:54.423Z,69.93
2024-03-14T18:07:57.411Z,70.09
2024-03-14T18:13:00.858Z,70.72
2024-03-14T18:18:06.742Z,71.04
2024-03-14T18:23:10.183Z,71.46
2024-03-14T18:28:13.518Z,71.88
2024-03-14T18:33:17.909Z,72.05
2024-03-14T18:38:21.001Z,72.59
2024-03-14T18:43:24.118Z,72.88
2024-03-14T18:48:27.250Z,73.46
2024-03-14T18:53:32.244Z,73.82
2024-03-14T18:58:36.171Z,74.49
2024-03-14T19:03:45.214Z,75.08
2024-03-14T19:08:50.978Z,75.42
2024-03-14T19:13:54.682Z,76.06
2024-03-14T19:19:01.146Z,76.28
2024-03-14T19:24:05.545Z,76.92
2024-03-14T19:29:12.350Z,77.18
2024-03-14T19:34:15.793Z,77.63
2024-03-14T19:39:21.035Z,77.56
2024-03-14T19:44:24.944Z,77.33
2024-03-14T19:49:29.056Z,77.54
2024-03-14T19:54:32.316Z,77.43
2024-03-14T19:59:35.594Z,77.45
2024-03-14T20:04:42.071Z,77.06
2024-03-14T20:09:45.768Z,77.58
2024-03-14T20:14:49.319Z,77.04
2024-03-14T20:19:52.589Z,76.93
2024-03-14T20:24:55.977Z,77.17
2024-03-14T20:30:00.712Z,77.25
2024-03-14T20:35:04.245Z,77.25
2024-03-14T20:40:09.567Z,76.86
2024-03-14T20:45:15.537Z,77.11
2024-03-14T20:50:20.865Z,76.72
2024-03-14T20:55:37.165Z,77.22
2024-03-14T21:00:40.763Z,77.38
2024-03-14T21:05:43.934Z,77.54
2024-03-14T21:10:47.163Z,77.85
2024-03-14T21:15:50.855Z,77.75
2024-03-14T21:20:57.883Z,78.51
2024-03-14T21:26:02.027Z,79.14
2024-03-14T21:31:05.466Z,79.11
2024-03-14T21:36:08.534Z,79.21
2024-03-14T21:41:11.621Z,79.67
2024-03-14T21:46:15.209Z,80.02
2024-03-14T21:51:19.301Z,80.35
2024-03-14T21:56:22.438Z,80.25
2024-03-14T22:01:26.140Z,80.06
2024-03-14T22:06:30.606Z,80.17
2024-03-14T22:11:33.830Z,79.83
2024-03-14T22:16:36.838Z,79.47
2024-03-14T22:21:41.560Z,80.12
2024-03-14T22:26:45.506Z,80.78
2024-03-14T22:31:49.207Z,80.89
2024-03-14T22:36:52.619Z,80.76
2024-03-14T22:41:55.759Z,81.31
2024-03-14T22:46:59.049Z,82.14
2024-03-14T22:52:02.096Z,82.77
2024-03-14T22:57:07.448Z,83.47
2024-03-14T23:02:11.046Z,83.30
2024-03-14T23:07:14.441Z,84.16
2024-03-14T23:12:17.487Z,83.98
2024-03-14T23:17:20.645Z,84.15
2024-03-14T23:22:23.692Z,84.09
2024-03-14T23:27:26.716Z,84.76
2024-03-14T23:32:30.656Z,85.63
2024-03-14T23:37:33.907Z,85.29
2024-03-14T23:42:38.925Z,85.61
2024-03-14T23:47:45.294Z,84.90
2024-03-14T23:52:49.046Z,83.87
2024-03-14T23:57:52.308Z,83.46
